createdAt,value
2017-10-17T00:01:33.211Z,9.13
2017-10-17T00:04:00.847Z,9.03
2017-10-17T00:06:29.226Z,8.10
2017-10-17T00:08:57.618Z,7.50
2017-10-17T00:11:25.221Z,9.33
2017-10-17T00:13:52.859Z,8.87
2017-10-17T00:16:20.494Z,8.67
2017-10-17T00:18:48.865Z,8.50
2017-10-17T00:21:17.270Z,8.47
2017-10-17T00:23:44.882Z,9.40
2017-10-17T00:26:12.510Z,9.10
2017-10-17T00:28:40.117Z,9.20
2017-10-17T00:31:08.523Z,8.20
2017-10-17T00:33:36.133Z,8.53
2017-10-17T00:36:09.357Z,9.73
2017-10-17T00:38:38.573Z,7.77
2017-10-17T00:41:06.177Z,7.60
2017-10-17T00:43:33.801Z,8.10
2017-10-17T00:46:03.037Z,8.50
2017-10-17T00:48:30.905Z,8.90
2017-10-17T00:50:59.321Z,9.13
2017-10-17T00:53:27.711Z,8.67
2017-10-17T00:55:56.101Z,8.97
2017-10-17T00:58:24.598Z,7.53
2017-10-17T01:00:52.232Z,8.30
2017-10-17T01:03:20.592Z,9.00
2017-10-17T01:05:48.230Z,8.90
2017-10-17T01:08:15.849Z,8.30
2017-10-17T01:10:43.453Z,8.80
2017-10-17T01:13:11.200Z,9.77
2017-10-17T01:15:38.817Z,8.93
2017-10-17T01:18:07.218Z,9.37
2017-10-17T01:20:38.814Z,9.43
2017-10-17T01:23:10.845Z,8.90
2017-10-17T01:25:38.438Z,8.90
2017-10-17T01:28:21.901Z,8.70
2017-10-17T01:30:50.277Z,8.40
2017-10-17T01:33:18.661Z,8.20
2017-10-17T01:35:47.070Z,8.33
2017-10-17T01:38:16.402Z,8.90
2017-10-17T01:40:44.022Z,9.47
2017-10-17T01:43:12.402Z,9.87
2017-10-17T01:45:40.045Z,8.47
2017-10-17T01:48:11.913Z,8.40
2017-10-17T01:50:39.537Z,9.30
2017-10-17T01:53:11.096Z,8.30
2017-10-17T01:55:38.739Z,9.57
2017-10-17T02:01:10.642Z,8.60
2017-10-17T02:03:39.058Z,9.53
2017-10-17T02:06:06.695Z,8.83
2017-10-17T02:08:35.185Z,9.23
2017-10-17T02:11:04.621Z,9.30
2017-10-17T02:13:32.285Z,8.63
2017-10-17T02:15:59.920Z,9.27
2017-10-17T02:18:27.577Z,8.13
2017-10-17T02:20:58.076Z,8.17
2017-10-17T02:23:29.292Z,9.93
2017-10-17T02:26:09.870Z,7.97
2017-10-17T02:28:46.030Z,8.87
2017-10-17T02:31:13.787Z,9.57
2017-10-17T02:33:46.132Z,9.00
2017-10-17T02:36:13.814Z,9.30
2017-10-17T02:38:41.448Z,9.90
2017-10-17T02:41:09.094Z,9.10
2017-10-17T02:43:41.994Z,8.97
2017-10-17T02:46:09.646Z,8.90
2017-10-17T02:48:40.940Z,8.83
2017-10-17T02:51:08.756Z,9.83
2017-10-17T02:53:37.400Z,9.27
2017-10-17T02:56:05.268Z,9.07
2017-10-17T02:58:33.032Z,8.90
2017-10-17T03:01:01.065Z,9.23
2017-10-17T03:03:30.220Z,9.63
2017-10-17T03:05:57.908Z,8.40
2017-10-17T03:08:25.575Z,8.83
2017-10-17T03:10:53.271Z,9.57
2017-10-17T03:13:24.879Z,8.90
2017-10-17T03:15:56.932Z,10.47
2017-10-17T03:18:24.589Z,10.27
2017-10-17T03:23:46.335Z,8.60
2017-10-17T03:26:13.968Z,9.73
2017-10-17T03:28:52.393Z,9.60
2017-10-17T03:31:20.956Z,8.73
2017-10-17T03:33:54.189Z,8.90
2017-10-17T03:36:39.607Z,8.97
2017-10-17T03:39:07.263Z,9.77
2017-10-17T03:41:34.895Z,8.60
2017-10-17T03:44:13.456Z,9.07
2017-10-17T03:46:45.626Z,9.10
2017-10-17T03:52:18.392Z,8.00
2017-10-17T03:54:47.689Z,10.80
2017-10-17T03:57:29.869Z,8.63
2017-10-17T03:59:59.401Z,8.87
2017-10-17T04:02:27.770Z,10.40
2017-10-17T04:05:01.881Z,9.50
2017-10-17T04:07:52.061Z,10.43
2017-10-17T04:10:43.182Z,9.83
2017-10-17T04:13:34.201Z,10.70
2017-10-17T04:16:03.314Z,11.10
2017-10-17T04:18:43.585Z,10.00
2017-10-17T04:21:12.169Z,9.07
2017-10-17T04:23:48.464Z,11.30
2017-10-17T04:29:34.209Z,8.87
2017-10-17T04:32:01.856Z,10.53
2017-10-17T04:34:34.078Z,11.00
2017-10-17T04:37:03.385Z,8.13
2017-10-17T04:39:31.114Z,8.47
2017-10-17T04:42:20.545Z,8.20
2017-10-17T04:51:22.623Z,8.03
2017-10-17T04:56:47.585Z,7.93
2017-10-17T05:02:22.761Z,9.57
2017-10-17T05:08:31.485Z,9.77
2017-10-17T05:11:05.494Z,7.87
2017-10-17T05:13:38.761Z,9.87
2017-10-17T05:19:03.625Z,8.40
2017-10-17T05:21:32.458Z,10.27
2017-10-17T05:27:25.336Z,8.30
2017-10-17T05:29:52.933Z,8.87
2017-10-17T05:32:20.570Z,9.30
2017-10-17T05:34:48.172Z,8.60
2017-10-17T05:37:17.433Z,9.33
2017-10-17T05:39:48.601Z,9.60
2017-10-17T05:42:16.977Z,11.27
2017-10-17T05:44:46.521Z,10.33
2017-10-17T05:47:17.751Z,10.20
2017-10-17T05:49:51.125Z,8.60
2017-10-17T05:52:18.730Z,12.37
2017-10-17T05:54:47.093Z,11.03
2017-10-17T05:57:14.726Z,11.30
2017-10-17T05:59:43.090Z,8.67
2017-10-17T06:02:10.725Z,9.70
2017-10-17T06:04:38.325Z,10.90
2017-10-17T06:07:06.709Z,10.80
2017-10-17T06:09:35.112Z,11.80
2017-10-17T06:12:02.719Z,10.17
2017-10-17T06:14:30.349Z,9.83
2017-10-17T06:16:57.970Z,10.77
2017-10-17T06:19:26.381Z,10.37
2017-10-17T06:21:53.988Z,11.07
2017-10-17T06:24:21.595Z,12.03
2017-10-17T06:26:49.228Z,11.83
2017-10-17T06:29:16.825Z,11.40
2017-10-17T06:31:44.453Z,10.43
2017-10-17T06:34:12.833Z,13.17
2017-10-17T06:36:41.244Z,10.87
2017-10-17T06:39:08.871Z,10.30
2017-10-17T06:41:37.237Z,10.70
2017-10-17T06:44:05.633Z,10.93
2017-10-17T06:46:33.993Z,10.13
2017-10-17T06:49:01.629Z,9.23
2017-10-17T06:51:29.234Z,11.00
2017-10-17T06:53:57.708Z,11.60
2017-10-17T06:56:26.108Z,9.97
2017-10-17T06:58:53.711Z,12.60
2017-10-17T07:01:21.346Z,11.47
2017-10-17T07:03:48.941Z,10.37
2017-10-17T07:06:16.585Z,9.40
2017-10-17T07:08:44.330Z,12.03
2017-10-17T07:11:11.942Z,11.20
2017-10-17T07:13:39.578Z,11.77
2017-10-17T07:16:07.189Z,13.33
2017-10-17T07:18:35.589Z,11.30
2017-10-17T07:21:03.193Z,11.40
2017-10-17T07:23:30.802Z,11.03
2017-10-17T07:25:58.448Z,10.93
2017-10-17T07:28:26.893Z,12.20
2017-10-17T07:30:54.490Z,11.10
2017-10-17T07:33:23.144Z,12.17
2017-10-17T07:35:50.753Z,12.03
2017-10-17T07:38:18.366Z,11.20
2017-10-17T07:40:46.079Z,11.37
2017-10-17T07:43:13.683Z,12.40
2017-10-17T07:45:41.292Z,12.37
2017-10-17T07:48:08.915Z,12.10
2017-10-17T07:50:36.526Z,11.47
2017-10-17T07:53:04.163Z,10.63
2017-10-17T07:55:32.526Z,11.20
2017-10-17T07:58:00.130Z,12.50
2017-10-17T08:00:27.760Z,10.47
2017-10-17T08:02:56.142Z,10.40
2017-10-17T08:05:24.551Z,12.20
2017-10-17T08:07:52.158Z,10.30
2017-10-17T08:10:20.525Z,9.80
2017-10-17T08:12:48.273Z,9.83
2017-10-17T08:15:15.878Z,12.07
2017-10-17T08:17:44.256Z,10.57
2017-10-17T08:20:12.664Z,10.20
2017-10-17T08:22:40.257Z,10.67
2017-10-17T08:25:07.890Z,11.30
2017-10-17T08:27:35.544Z,11.00
2017-10-17T08:30:03.141Z,8.90
2017-10-17T08:32:30.774Z,8.13
2017-10-17T08:34:58.397Z,11.37
2017-10-17T08:37:26.127Z,10.40
2017-10-17T08:39:53.820Z,10.30
2017-10-17T08:42:22.268Z,10.30
2017-10-17T08:44:50.025Z,10.10
2017-10-17T08:47:17.628Z,10.43
2017-10-17T08:49:45.225Z,11.57
2017-10-17T08:52:12.931Z,10.83
2017-10-17T08:54:40.536Z,10.47
2017-10-17T08:57:08.240Z,10.30
2017-10-17T08:59:35.840Z,8.67
2017-10-17T09:02:04.235Z,9.43
2017-10-17T09:04:31.833Z,8.67
2017-10-17T09:06:59.445Z,9.63
2017-10-17T09:09:27.830Z,9.20
2017-10-17T09:11:56.201Z,8.03
2017-10-17T09:14:24.834Z,9.80
2017-10-17T09:16:52.579Z,9.30
2017-10-17T09:19:20.168Z,9.80
2017-10-17T09:21:47.793Z,8.83
2017-10-17T09:24:15.508Z,9.60
2017-10-17T09:26:43.151Z,9.50
2017-10-17T09:29:10.753Z,9.10
2017-10-17T09:31:39.184Z,8.53
2017-10-17T09:34:06.820Z,7.87
2017-10-17T09:36:34.415Z,8.70
2017-10-17T09:39:02.090Z,8.43
2017-10-17T09:41:31.583Z,8.00
2017-10-17T09:43:59.245Z,10.43
2017-10-17T09:46:26.841Z,9.37
2017-10-17T09:48:55.275Z,9.60
2017-10-17T09:51:22.903Z,9.63
2017-10-17T09:53:50.522Z,9.43
2017-10-17T09:56:18.147Z,8.57
2017-10-17T09:58:45.751Z,10.20
2017-10-17T10:01:13.401Z,8.80
2017-10-17T10:03:40.997Z,9.40
2017-10-17T10:06:09.382Z,8.47
2017-10-17T10:08:37.809Z,9.37
2017-10-17T10:11:05.407Z,8.73
2017-10-17T10:13:33.884Z,9.63
2017-10-17T10:16:01.510Z,8.43
2017-10-17T10:18:29.105Z,8.43
2017-10-17T10:20:56.730Z,7.90
2017-10-17T10:23:24.333Z,7.80
2017-10-17T10:25:52.733Z,7.97
2017-10-17T10:28:20.398Z,6.93
2017-10-17T10:30:48.017Z,7.97
2017-10-17T10:33:15.678Z,7.63
2017-10-17T10:35:43.320Z,6.83
2017-10-17T10:38:10.917Z,7.40
2017-10-17T10:40:39.285Z,8.10
2017-10-17T10:43:06.923Z,6.70
2017-10-17T10:45:34.524Z,7.67
2017-10-17T10:48:02.916Z,7.27
2017-10-17T10:50:30.522Z,6.70
2017-10-17T10:52:58.929Z,6.67
2017-10-17T10:55:26.656Z,6.50
2017-10-17T10:57:54.253Z,7.23
2017-10-17T11:00:21.914Z,6.80
2017-10-17T11:02:49.513Z,7.40
2017-10-17T11:05:17.145Z,6.53
2017-10-17T11:07:45.527Z,6.83
2017-10-17T11:10:13.922Z,6.53
2017-10-17T11:12:41.525Z,6.30
2017-10-17T11:15:09.157Z,6.20
2017-10-17T11:17:36.813Z,7.20
2017-10-17T11:20:04.442Z,5.70
2017-10-17T11:22:32.044Z,5.60
2017-10-17T11:24:59.654Z,7.20
2017-10-17T11:27:27.280Z,6.00
2017-10-17T11:29:55.239Z,6.00
2017-10-17T11:32:22.857Z,6.97
2017-10-17T11:34:51.226Z,5.90
2017-10-17T11:37:18.857Z,6.40
2017-10-17T11:39:46.476Z,5.50
2017-10-17T11:42:25.995Z,5.47
2017-10-17T11:44:54.433Z,5.97
2017-10-17T11:47:22.034Z,6.60
2017-10-17T11:49:49.653Z,4.83
2017-10-17T11:52:17.257Z,4.83
2017-10-17T11:54:44.913Z,4.90
2017-10-17T11:57:13.278Z,6.40
2017-10-17T11:59:40.926Z,6.07
2017-10-17T12:02:08.527Z,6.00
2017-10-17T12:04:36.898Z,4.87
2017-10-17T12:07:05.301Z,6.33
2017-10-17T12:09:32.904Z,6.40
2017-10-17T12:12:00.547Z,8.17
2017-10-17T12:14:28.161Z,6.30
2017-10-17T12:16:56.575Z,4.80
2017-10-17T12:19:24.217Z,5.20
2017-10-17T12:21:52.581Z,5.87
2017-10-17T12:24:20.981Z,5.10
2017-10-17T12:26:48.581Z,6.27
2017-10-17T12:29:16.185Z,4.70
2017-10-17T12:31:44.675Z,4.90
2017-10-17T12:34:13.045Z,4.73
2017-10-17T12:36:41.453Z,4.73
2017-10-17T12:39:09.049Z,5.70
2017-10-17T12:41:36.649Z,4.97
2017-10-17T12:44:05.045Z,5.30
2017-10-17T12:46:32.646Z,5.13
2017-10-17T12:49:00.288Z,4.63
2017-10-17T12:51:27.900Z,4.67
2017-10-17T12:53:56.265Z,5.60
2017-10-17T12:56:23.888Z,5.03
2017-10-17T12:58:52.163Z,4.67
2017-10-17T13:01:19.784Z,4.70
2017-10-17T13:03:48.153Z,5.17
2017-10-17T13:06:15.741Z,4.37
2017-10-17T13:08:43.365Z,3.73
2017-10-17T13:11:10.962Z,4.37
2017-10-17T13:13:39.346Z,4.73
2017-10-17T13:16:06.957Z,4.23
2017-10-17T13:18:34.581Z,4.13
2017-10-17T13:21:02.256Z,3.73
2017-10-17T13:23:29.928Z,4.00
2017-10-17T13:25:57.552Z,3.50
2017-10-17T13:28:25.158Z,4.73
2017-10-17T13:30:52.760Z,4.07
2017-10-17T13:33:21.145Z,4.30
2017-10-17T13:35:48.845Z,3.87
2017-10-17T13:38:16.492Z,4.70
2017-10-17T13:40:44.089Z,5.30
2017-10-17T13:43:11.693Z,5.30
2017-10-17T13:45:39.313Z,4.70
2017-10-17T13:48:06.913Z,4.50
2017-10-17T13:50:35.293Z,4.53
2017-10-17T13:53:02.957Z,4.80
2017-10-17T13:55:30.597Z,4.90
2017-10-17T13:57:58.958Z,4.97
2017-10-17T14:00:26.589Z,3.70
2017-10-17T14:02:54.241Z,4.40
2017-10-17T14:05:21.877Z,4.30
2017-10-17T14:07:49.503Z,4.50
2017-10-17T14:10:17.103Z,4.43
2017-10-17T14:12:44.725Z,4.07
2017-10-17T14:15:12.340Z,4.20
2017-10-17T14:17:39.949Z,3.70
2017-10-17T14:20:07.574Z,4.67
2017-10-17T14:22:35.170Z,4.10
2017-10-17T14:25:02.822Z,4.57
2017-10-17T14:27:30.415Z,3.97
2017-10-17T14:29:58.775Z,4.47
2017-10-17T14:32:26.410Z,4.40
2017-10-17T14:34:54.017Z,4.43
2017-10-17T14:37:22.425Z,4.57
2017-10-17T14:39:50.025Z,4.63
2017-10-17T14:42:17.645Z,3.80
2017-10-17T14:44:45.275Z,3.50
2017-10-17T14:47:13.638Z,4.73
2017-10-17T14:49:41.261Z,4.20
2017-10-17T14:52:08.878Z,3.90
2017-10-17T14:54:37.274Z,4.00
2017-10-17T14:57:04.961Z,4.50
2017-10-17T14:59:32.624Z,4.10
2017-10-17T15:02:00.245Z,4.30
2017-10-17T15:04:28.605Z,3.70
2017-10-17T15:06:56.327Z,4.47
2017-10-17T15:09:23.926Z,4.90
2017-10-17T15:11:52.288Z,4.90
2017-10-17T15:14:19.924Z,5.10
2017-10-17T15:16:47.534Z,4.30
2017-10-17T15:19:15.926Z,3.47
2017-10-17T15:21:44.281Z,3.73
2017-10-17T15:24:11.910Z,4.30
2017-10-17T15:26:39.509Z,3.83
2017-10-17T15:29:07.115Z,4.50
2017-10-17T15:31:34.760Z,4.70
2017-10-17T15:34:02.358Z,4.07
2017-10-17T15:36:29.988Z,4.30
2017-10-17T15:38:57.605Z,4.60
2017-10-17T15:41:25.365Z,4.20
2017-10-17T15:43:52.969Z,4.00
2017-10-17T15:46:20.561Z,3.57
2017-10-17T15:48:48.182Z,3.33
2017-10-17T15:51:15.777Z,3.90
2017-10-17T15:53:43.410Z,4.00
2017-10-17T15:56:11.002Z,4.10
2017-10-17T15:58:38.603Z,3.90
2017-10-17T16:01:07.002Z,3.63
2017-10-17T16:03:34.602Z,3.60
2017-10-17T16:06:02.234Z,3.60
2017-10-17T16:08:29.826Z,4.03
2017-10-17T16:10:57.609Z,4.53
2017-10-17T16:13:25.340Z,4.40
2017-10-17T16:15:53.076Z,7.67
2017-10-17T16:18:20.882Z,7.30
2017-10-17T16:20:48.606Z,7.17
2017-10-17T16:23:16.405Z,6.70
2017-10-17T16:25:44.147Z,5.57
2017-10-17T16:28:11.939Z,5.10
2017-10-17T16:30:39.786Z,4.60
2017-10-17T16:33:07.553Z,5.30
2017-10-17T16:35:35.322Z,4.90
2017-10-17T16:38:03.071Z,4.53
2017-10-17T16:40:30.813Z,4.70
2017-10-17T16:42:59.343Z,4.03
2017-10-17T16:45:27.084Z,4.70
2017-10-17T16:47:54.940Z,4.40
2017-10-17T16:50:22.771Z,4.10
2017-10-17T16:52:50.508Z,4.17
2017-10-17T16:55:18.297Z,4.80
2017-10-17T16:57:46.054Z,4.07
2017-10-17T17:00:13.855Z,3.90
2017-10-17T17:02:41.599Z,3.60
2017-10-17T17:05:09.349Z,4.23
2017-10-17T17:07:37.163Z,4.30
2017-10-17T17:10:04.946Z,3.77
2017-10-17T17:12:32.724Z,5.37
2017-10-17T17:15:00.587Z,4.60
2017-10-17T17:17:28.448Z,4.03
2017-10-17T17:19:57.024Z,5.40
2017-10-17T17:22:24.797Z,5.07
2017-10-17T17:24:52.669Z,3.80
2017-10-17T17:27:20.486Z,4.47
2017-10-17T17:29:48.292Z,3.90
2017-10-17T17:32:16.043Z,3.97
2017-10-17T17:34:43.822Z,4.67
2017-10-17T17:37:11.691Z,4.07
2017-10-17T17:39:39.503Z,4.50
2017-10-17T17:42:07.320Z,4.03
2017-10-17T17:44:36.004Z,4.70
2017-10-17T17:47:03.732Z,3.50
2017-10-17T17:49:31.636Z,5.77
2017-10-17T17:51:59.503Z,4.50
2017-10-17T17:54:27.473Z,4.23
2017-10-17T17:56:55.339Z,4.03
2017-10-17T17:59:22.954Z,4.03
2017-10-17T18:01:51.340Z,5.23
2017-10-17T18:04:19.698Z,4.83
2017-10-17T18:06:47.419Z,5.10
2017-10-17T18:09:15.022Z,4.17
2017-10-17T18:11:42.618Z,4.70
2017-10-17T18:14:10.430Z,5.50
2017-10-17T18:16:38.030Z,5.03
2017-10-17T18:19:06.429Z,7.10
2017-10-17T18:21:34.023Z,6.40
2017-10-17T18:24:01.623Z,5.60
2017-10-17T18:26:29.288Z,4.73
2017-10-17T18:28:57.665Z,4.50
2017-10-17T18:31:26.074Z,4.20
2017-10-17T18:33:53.691Z,4.90
2017-10-17T18:36:22.060Z,5.10
2017-10-17T18:38:49.690Z,5.47
2017-10-17T18:41:17.286Z,4.50
2017-10-17T18:43:44.942Z,5.37
2017-10-17T18:46:12.542Z,4.93
2017-10-17T18:48:40.238Z,5.20
2017-10-17T18:51:07.863Z,5.53
2017-10-17T18:53:35.488Z,4.63
2017-10-17T18:56:03.120Z,4.60
2017-10-17T18:58:30.750Z,4.27
2017-10-17T19:00:58.350Z,4.93
2017-10-17T19:03:25.990Z,5.80
2017-10-17T19:05:53.593Z,4.07
2017-10-17T19:08:21.233Z,5.33
2017-10-17T19:10:48.834Z,5.10
2017-10-17T19:13:17.194Z,4.93
2017-10-17T19:15:44.927Z,4.57
2017-10-17T19:18:12.526Z,4.70
2017-10-17T19:20:40.919Z,4.57
2017-10-17T19:23:08.526Z,4.70
2017-10-17T19:25:36.167Z,4.80
2017-10-17T19:28:03.769Z,6.03
2017-10-17T19:30:31.374Z,5.27
2017-10-17T19:32:59.001Z,5.07
2017-10-17T19:35:26.649Z,4.50
2017-10-17T19:37:54.277Z,4.70
2017-10-17T19:40:21.877Z,5.20
2017-10-17T19:42:49.473Z,6.73
2017-10-17T19:45:17.106Z,6.17
2017-10-17T19:47:45.347Z,6.70
2017-10-17T19:50:13.209Z,6.67
2017-10-17T19:52:40.817Z,10.37
2017-10-17T19:55:08.450Z,11.40
2017-10-17T19:57:36.056Z,10.30
2017-10-17T20:00:04.436Z,7.70
2017-10-17T20:02:32.839Z,7.53
2017-10-17T20:05:00.437Z,5.60
2017-10-17T20:07:28.064Z,5.50
2017-10-17T20:09:55.737Z,7.07
2017-10-17T20:12:23.368Z,6.77
2017-10-17T20:14:50.975Z,4.70
2017-10-17T20:17:18.575Z,5.40
2017-10-17T20:19:46.974Z,5.10
2017-10-17T20:22:14.581Z,5.10
2017-10-17T20:24:42.225Z,11.37
2017-10-17T20:27:09.984Z,11.00
2017-10-17T20:29:37.590Z,9.70
2017-10-17T20:32:05.994Z,9.30
2017-10-17T20:34:33.592Z,7.57
2017-10-17T20:37:01.231Z,5.67
2017-10-17T20:39:28.826Z,6.50
2017-10-17T20:41:56.422Z,5.43
2017-10-17T20:44:24.815Z,5.30
2017-10-17T20:46:52.416Z,4.53
2017-10-17T20:49:20.042Z,5.60
2017-10-17T20:51:47.650Z,5.57
2017-10-17T20:54:15.297Z,5.90
2017-10-17T20:56:42.912Z,7.20
2017-10-17T20:59:11.278Z,9.50
2017-10-17T21:01:39.679Z,6.50
2017-10-17T21:04:07.289Z,7.37
2017-10-17T21:06:34.926Z,6.30
2017-10-17T21:09:02.529Z,4.97
2017-10-17T21:11:30.129Z,5.13
2017-10-17T21:13:57.766Z,5.47
2017-10-17T21:16:26.130Z,5.57
2017-10-17T21:18:53.759Z,6.00
2017-10-17T21:21:21.956Z,5.90
2017-10-17T21:23:49.594Z,5.80
2017-10-17T21:26:17.195Z,6.23
2017-10-17T21:28:45.562Z,5.90
2017-10-17T21:31:13.182Z,5.70
2017-10-17T21:33:40.815Z,5.10
2017-10-17T21:36:08.447Z,5.80
2017-10-17T21:38:36.812Z,4.90
2017-10-17T21:41:05.966Z,5.37
2017-10-17T21:43:33.565Z,9.30
2017-10-17T21:46:01.198Z,6.33
2017-10-17T21:48:28.811Z,6.07
2017-10-17T21:50:57.175Z,4.50
2017-10-17T21:53:26.301Z,5.90
2017-10-17T21:55:54.666Z,5.50
2017-10-17T21:58:23.061Z,5.20
2017-10-17T22:01:07.122Z,4.93
2017-10-17T22:03:34.770Z,3.60
2017-10-17T22:06:02.380Z,9.67
2017-10-17T22:08:29.989Z,4.63
2017-10-17T22:10:58.393Z,5.70
2017-10-17T22:13:26.006Z,6.53
2017-10-17T22:15:53.658Z,6.20
2017-10-17T22:18:21.274Z,5.47
2017-10-17T22:20:48.902Z,5.03
2017-10-17T22:23:17.293Z,4.33
2017-10-17T22:25:45.655Z,4.50
2017-10-17T22:28:14.050Z,5.17
2017-10-17T22:30:43.630Z,5.63
2017-10-17T22:33:11.370Z,4.10
2017-10-17T22:35:38.972Z,4.47
2017-10-17T22:38:07.341Z,5.20
2017-10-17T22:40:34.972Z,4.50
2017-10-17T22:43:02.568Z,4.50
2017-10-17T22:45:30.955Z,4.20
2017-10-17T22:47:59.314Z,4.50
2017-10-17T22:50:26.960Z,4.67
2017-10-17T22:52:54.549Z,4.93
2017-10-17T22:55:22.912Z,4.63
2017-10-17T22:57:50.537Z,5.20
2017-10-17T23:00:18.130Z,5.30
2017-10-17T23:02:45.762Z,5.07
2017-10-17T23:05:13.354Z,3.27
2017-10-17T23:07:40.961Z,3.50
2017-10-17T23:10:08.693Z,3.53
2017-10-17T23:12:37.055Z,3.90
2017-10-17T23:15:04.694Z,3.53
2017-10-17T23:17:44.242Z,3.60
2017-10-17T23:20:23.685Z,3.50
2017-10-17T23:22:51.280Z,4.30
2017-10-17T23:25:19.674Z,4.17
2017-10-17T23:27:47.289Z,4.40
2017-10-17T23:30:14.905Z,4.77
2017-10-17T23:32:42.546Z,5.63
2017-10-17T23:35:10.162Z,4.27
2017-10-17T23:37:37.792Z,3.93
2017-10-17T23:40:05.402Z,4.43
2017-10-17T23:42:33.004Z,3.67
2017-10-17T23:45:00.670Z,4.70
2017-10-17T23:47:28.289Z,6.10
2017-10-17T23:49:55.924Z,3.77
2017-10-17T23:52:23.525Z,4.93
2017-10-17T23:54:51.885Z,6.10
2017-10-17T23:57:21.005Z,3.60
2017-10-17T23:59:49.361Z,3.50
